Time;durP1;ratioP1;P1;durP2;ratioP2;P2;SDS_P1;SDS_P2;PMS_P1;PMS_P2;Temp;Humidity;BMP_temperature;BMP_pressure;BME280_temperature;BME280_humidity;BME280_pressure;Samples;Min_cycle;Max_cycle;Signal;HPM_P1;HPM_P2
2024/01/08 00:00:05;;;;;;;0.30;0.20;;;5.70;99.90;;;;;;5091267;28;20260;-79
2024/01/08 00:02:31;;;;;;;0.30;0.28;;;5.70;99.90;;;;;;5092185;28;20219;-74
2024/01/08 00:04:57;;;;;;;0.30;0.30;;;5.70;99.90;;;;;;5091889;28;20603;-74
2024/01/08 00:07:25;;;;;;;0.30;0.20;;;5.60;99.90;;;;;;5090810;28;20429;-74
2024/01/08 00:09:50;;;;;;;0.30;0.20;;;5.60;99.90;;;;;;5090669;28;20923;-79
2024/01/08 00:12:16;;;;;;;0.30;0.20;;;5.60;99.90;;;;;;5090917;28;20181;-73
2024/01/08 00:14:42;;;;;;;0.30;0.20;;;5.60;99.90;;;;;;5092001;28;20193;-73
2024/01/08 00:17:07;;;;;;;0.30;0.30;;;5.50;99.90;;;;;;5090946;28;20707;-74
2024/01/08 00:19:33;;;;;;;0.30;0.23;;;5.50;99.90;;;;;;5090557;28;20213;-79
2024/01/08 00:21:59;;;;;;;0.30;0.20;;;5.50;99.90;;;;;;5090515;28;20250;-73
2024/01/08 00:24:24;;;;;;;0.30;0.20;;;5.60;99.90;;;;;;5090745;28;20231;-74
2024/01/08 00:26:50;;;;;;;0.30;0.20;;;5.60;99.90;;;;;;5090330;28;20637;-75
2024/01/08 00:29:16;;;;;;;0.30;0.20;;;5.60;99.90;;;;;;5092133;28;20232;-79
2024/01/08 00:31:41;;;;;;;0.30;0.20;;;5.60;99.90;;;;;;5090419;28;20169;-79
2024/01/08 00:34:08;;;;;;;0.30;0.20;;;5.50;99.90;;;;;;5090329;28;20527;-80
2024/01/08 00:36:36;;;;;;;0.30;0.20;;;5.50;99.90;;;;;;5091597;28;20177;-79
2024/01/08 00:39:02;;;;;;;0.30;0.30;;;5.40;99.90;;;;;;5089867;28;20200;-73
2024/01/08 00:41:28;;;;;;;0.30;0.20;;;5.40;99.90;;;;;;5091348;28;20178;-73
2024/01/08 00:43:54;;;;;;;0.30;0.20;;;5.40;99.90;;;;;;5090319;28;20235;-80
2024/01/08 00:46:19;;;;;;;0.30;0.20;;;5.40;99.90;;;;;;5090358;28;20232;-80
2024/01/08 00:48:45;;;;;;;0.30;0.20;;;5.40;99.90;;;;;;5089868;28;20265;-73
2024/01/08 00:51:11;;;;;;;0.30;0.30;;;5.40;99.90;;;;;;5091467;28;20409;-74
2024/01/08 00:53:37;;;;;;;0.30;0.20;;;5.30;99.90;;;;;;5091525;28;20192;-73
2024/01/08 00:56:03;;;;;;;0.30;0.20;;;5.40;99.90;;;;;;5090839;28;20586;-73
2024/01/08 00:58:30;;;;;;;0.30;0.20;;;5.40;99.90;;;;;;5091235;28;20801;-80
2024/01/08 01:00:56;;;;;;;0.30;0.20;;;5.30;99.90;;;;;;5089753;28;20192;-74
2024/01/08 01:03:22;;;;;;;0.30;0.20;;;5.30;99.90;;;;;;5090671;28;20220;-73
2024/01/08 01:05:48;;;;;;;0.30;0.30;;;5.30;99.90;;;;;;5089891;28;20220;-74
2024/01/08 01:08:13;;;;;;;0.30;0.20;;;5.30;99.90;;;;;;5089590;28;20206;-80
2024/01/08 01:10:39;;;;;;;0.30;0.20;;;5.20;99.90;;;;;;5089826;28;20268;-74
2024/01/08 01:13:05;;;;;;;0.30;0.20;;;5.20;99.90;;;;;;5089588;28;20211;-74
2024/01/08 01:15:30;;;;;;;0.30;0.20;;;5.20;99.90;;;;;;5089747;28;20930;-73
2024/01/08 01:17:56;;;;;;;0.30;0.30;;;5.20;99.90;;;;;;5090319;28;20196;-74
2024/01/08 01:20:22;;;;;;;0.30;0.20;;;5.20;99.90;;;;;;5090568;28;20540;-75
2024/01/08 01:22:48;;;;;;;0.30;0.20;;;5.20;99.90;;;;;;5090252;28;20243;-80
2024/01/08 01:25:14;;;;;;;0.30;0.20;;;5.30;99.90;;;;;;5089771;28;20184;-76
2024/01/08 01:27:39;;;;;;;0.30;0.20;;;5.20;99.90;;;;;;5089131;28;20266;-74
2024/01/08 01:30:06;;;;;;;0.30;0.20;;;5.20;99.90;;;;;;5090908;28;20259;-75
2024/01/08 01:32:32;;;;;;;0.30;0.30;;;5.20;99.90;;;;;;5089068;28;20183;-73
2024/01/08 01:34:58;;;;;;;0.30;0.20;;;5.20;99.90;;;;;;5091027;28;20172;-74
2024/01/08 01:37:23;;;;;;;0.30;0.20;;;5.20;99.90;;;;;;5089316;28;20524;-73
2024/01/08 01:39:49;;;;;;;0.30;0.20;;;5.20;99.90;;;;;;5089129;28;20684;-73
2024/01/08 01:42:16;;;;;;;0.30;0.27;;;5.10;99.90;;;;;;5089048;28;20212;-79
2024/01/08 01:44:41;;;;;;;0.30;0.20;;;5.10;99.90;;;;;;5090326;28;20244;-73
2024/01/08 01:47:07;;;;;;;0.30;0.20;;;5.10;99.90;;;;;;5090450;28;20169;-74
2024/01/08 01:49:33;;;;;;;0.30;0.30;;;5.10;99.90;;;;;;5090714;28;20192;-82
2024/01/08 01:51:59;;;;;;;0.30;0.20;;;5.10;99.90;;;;;;5088720;28;20479;-73
2024/01/08 01:54:28;;;;;;;0.30;0.20;;;5.00;99.90;;;;;;5089183;28;20294;-79
2024/01/08 01:56:59;;;;;;;0.30;0.20;;;5.00;99.90;;;;;;5087928;28;20184;-80
2024/01/08 01:59:27;;;;;;;0.30;0.20;;;5.00;99.90;;;;;;5088946;28;20712;-74
2024/01/08 02:01:54;;;;;;;0.30;0.20;;;5.00;99.90;;;;;;5088367;28;20653;-74
2024/01/08 02:04:23;;;;;;;0.30;0.20;;;5.00;99.90;;;;;;5088929;28;20326;-79
2024/01/08 02:06:50;;;;;;;0.30;0.20;;;4.90;99.90;;;;;;5089811;28;20220;-79
2024/01/08 02:09:16;;;;;;;0.30;0.20;;;4.90;99.90;;;;;;5089043;28;20212;-79
2024/01/08 02:11:43;;;;;;;0.30;0.20;;;4.90;99.90;;;;;;5089971;28;20176;-80
2024/01/08 02:14:09;;;;;;;0.30;0.20;;;4.90;99.90;;;;;;5089505;28;20415;-74
2024/01/08 02:16:35;;;;;;;0.30;0.20;;;4.90;99.90;;;;;;5089819;28;20168;-74
2024/01/08 02:19:01;;;;;;;0.30;0.20;;;4.80;99.90;;;;;;5087974;28;20231;-73
2024/01/08 02:21:27;;;;;;;0.30;0.20;;;4.80;99.90;;;;;;5088149;28;20172;-79
2024/01/08 02:23:53;;;;;;;0.30;0.20;;;4.80;99.90;;;;;;5088223;28;20269;-74
2024/01/08 02:26:19;;;;;;;0.30;0.30;;;4.80;99.90;;;;;;5089903;28;20172;-74
2024/01/08 02:28:44;;;;;;;0.30;0.20;;;4.80;99.90;;;;;;5089909;28;20254;-74
2024/01/08 02:31:10;;;;;;;0.30;0.30;;;4.80;99.90;;;;;;5089393;28;20499;-74
2024/01/08 02:33:36;;;;;;;0.30;0.30;;;4.80;99.90;;;;;;5088316;28;20300;-79
2024/01/08 02:36:01;;;;;;;0.30;0.20;;;4.80;99.90;;;;;;5088395;28;20187;-73
2024/01/08 02:38:27;;;;;;;0.30;0.20;;;4.70;99.90;;;;;;5089933;28;20196;-74
2024/01/08 02:40:53;;;;;;;0.30;0.20;;;4.70;99.90;;;;;;5088270;28;20344;-79
2024/01/08 02:43:18;;;;;;;0.30;0.20;;;4.70;99.90;;;;;;5088078;28;20288;-73
2024/01/08 02:45:44;;;;;;;0.30;0.20;;;4.70;99.90;;;;;;5088495;28;20181;-78
2024/01/08 02:48:10;;;;;;;0.30;0.20;;;4.70;99.90;;;;;;5089053;28;20207;-79
2024/01/08 02:50:36;;;;;;;0.30;0.20;;;4.70;99.90;;;;;;5089698;28;20310;-73
2024/01/08 02:53:01;;;;;;;0.30;0.20;;;4.70;99.90;;;;;;5088117;28;20673;-79
2024/01/08 02:55:27;;;;;;;0.30;0.20;;;4.70;99.90;;;;;;5089934;28;20644;-79
2024/01/08 02:57:53;;;;;;;0.30;0.20;;;4.60;99.90;;;;;;5086768;28;20288;-79
2024/01/08 03:00:18;;;;;;;0.30;0.30;;;4.70;99.90;;;;;;5088466;28;20574;-73
2024/01/08 03:02:44;;;;;;;0.30;0.20;;;4.60;99.90;;;;;;5089838;28;20476;-74
2024/01/08 03:05:09;;;;;;;0.30;0.30;;;4.60;99.90;;;;;;5093312;28;20229;-73
2024/01/08 03:07:35;;;;;;;0.30;0.20;;;4.60;99.90;;;;;;5091731;28;20271;-74
2024/01/08 03:10:01;;;;;;;0.30;0.20;;;4.60;99.90;;;;;;5092009;28;20438;-73
2024/01/08 03:12:27;;;;;;;0.30;0.20;;;4.60;99.90;;;;;;5092163;28;20622;-73
2024/01/08 03:14:53;;;;;;;0.30;0.20;;;4.60;99.90;;;;;;5093411;28;20176;-73
2024/01/08 03:17:18;;;;;;;0.30;0.20;;;4.60;99.90;;;;;;5091882;28;20195;-73
2024/01/08 03:19:44;;;;;;;0.30;0.20;;;4.60;99.90;;;;;;5091742;28;21022;-79
2024/01/08 03:22:10;;;;;;;0.30;0.20;;;4.60;99.90;;;;;;5091594;28;20200;-74
2024/01/08 03:24:38;;;;;;;0.30;0.20;;;4.50;99.90;;;;;;5090961;28;20204;-74
2024/01/08 03:27:04;;;;;;;0.30;0.20;;;4.50;99.90;;;;;;5093105;28;20196;-79
2024/01/08 03:29:30;;;;;;;0.30;0.30;;;4.50;99.90;;;;;;5092885;28;20434;-73
2024/01/08 03:31:55;;;;;;;0.30;0.20;;;4.50;99.90;;;;;;5091433;28;20187;-73
2024/01/08 03:34:21;;;;;;;0.30;0.20;;;4.50;99.90;;;;;;5091793;28;20670;-80
2024/01/08 03:36:48;;;;;;;0.30;0.30;;;4.60;99.90;;;;;;5091570;28;20173;-78
2024/01/08 03:39:15;;;;;;;0.30;0.28;;;4.60;99.90;;;;;;5093489;28;20201;-79
2024/01/08 03:41:42;;;;;;;0.30;0.22;;;4.50;99.90;;;;;;5091478;28;20172;-79
2024/01/08 03:44:08;;;;;;;0.30;0.30;;;4.60;99.90;;;;;;5092972;28;20287;-73
2024/01/08 03:46:34;;;;;;;0.30;0.20;;;4.50;99.90;;;;;;5091514;28;20207;-79
2024/01/08 03:49:00;;;;;;;0.30;0.20;;;4.50;99.90;;;;;;5093099;28;20677;-74
2024/01/08 03:51:26;;;;;;;0.30;0.20;;;4.50;99.90;;;;;;5092698;28;20207;-73
2024/01/08 03:53:53;;;;;;;0.30;0.20;;;4.50;99.90;;;;;;5092125;28;20865;-73
2024/01/08 03:56:18;;;;;;;0.30;0.28;;;4.60;99.90;;;;;;5092906;28;20510;-79
2024/01/08 03:58:44;;;;;;;0.30;0.20;;;4.60;99.90;;;;;;5090429;28;20220;-74
2024/01/08 04:01:11;;;;;;;0.30;0.20;;;4.60;99.90;;;;;;5091157;28;20648;-73
2024/01/08 04:03:37;;;;;;;0.30;0.20;;;4.60;99.90;;;;;;5092182;28;20212;-73
2024/01/08 04:06:03;;;;;;;0.30;0.20;;;4.70;99.90;;;;;;5092188;28;20230;-80
2024/01/08 04:08:29;;;;;;;0.30;0.20;;;4.70;99.90;;;;;;5092483;28;20790;-79
2024/01/08 04:10:54;;;;;;;0.30;0.30;;;4.70;99.90;;;;;;5090818;28;20398;-79
2024/01/08 04:13:20;;;;;;;0.30;0.20;;;4.80;99.90;;;;;;5092377;28;20283;-74
2024/01/08 04:15:46;;;;;;;0.30;0.20;;;4.80;99.90;;;;;;5089838;28;20172;-78
2024/01/08 04:18:13;;;;;;;0.30;0.20;;;4.80;99.90;;;;;;5091849;28;20197;-73
2024/01/08 04:20:39;;;;;;;0.30;0.30;;;4.80;99.90;;;;;;5092155;28;20169;-73
2024/01/08 04:23:05;;;;;;;0.30;0.20;;;4.70;99.90;;;;;;5090881;28;20230;-73
2024/01/08 04:25:31;;;;;;;0.30;0.30;;;4.70;99.90;;;;;;5091861;28;20673;-74
2024/01/08 04:27:57;;;;;;;0.30;0.30;;;4.70;99.90;;;;;;5091825;28;21001;-79
2024/01/08 04:30:22;;;;;;;0.30;0.20;;;4.70;99.90;;;;;;5091246;28;20279;-78
2024/01/08 04:32:48;;;;;;;0.30;0.20;;;4.70;99.90;;;;;;5091157;28;20192;-81
2024/01/08 04:35:14;;;;;;;0.30;0.20;;;4.70;99.90;;;;;;5091116;28;20195;-75
2024/01/08 04:37:40;;;;;;;0.30;0.20;;;4.70;99.90;;;;;;5092223;28;20452;-80
2024/01/08 04:40:07;;;;;;;0.30;0.20;;;4.70;99.90;;;;;;5092256;28;20641;-74
2024/01/08 04:42:32;;;;;;;1.15;1.15;;;4.80;99.90;;;;;;5091379;28;20261;-80
2024/01/08 04:44:58;;;;;;;0.30;0.20;;;5.20;99.90;;;;;;5090409;28;20172;-76
2024/01/08 04:47:24;;;;;;;0.30;0.20;;;5.70;99.90;;;;;;5090024;28;20411;-73
2024/01/08 04:49:50;;;;;;;0.30;0.30;;;5.90;99.90;;;;;;5090074;28;20290;-74
2024/01/08 04:52:15;;;;;;;0.30;0.20;;;6.40;99.90;;;;;;5090108;28;20177;-74
2024/01/08 04:54:42;;;;;;;0.30;0.20;;;6.70;99.90;;;;;;5091253;28;20585;-73
2024/01/08 04:57:08;;;;;;;0.30;0.20;;;7.00;99.90;;;;;;5089838;28;20544;-73
2024/01/08 04:59:42;;;;;;;0.30;0.20;;;7.20;99.90;;;;;;5090783;28;20250;-80
2024/01/08 05:02:10;;;;;;;0.30;0.20;;;7.30;99.90;;;;;;5091200;28;20204;-79
2024/01/08 05:04:36;;;;;;;0.30;0.20;;;7.30;99.90;;;;;;5089626;28;20281;-74
2024/01/08 05:07:02;;;;;;;0.30;0.20;;;7.30;99.90;;;;;;5089949;28;20172;-74
2024/01/08 05:09:29;;;;;;;0.30;0.20;;;7.50;99.90;;;;;;5091200;28;20291;-79
2024/01/08 05:11:55;;;;;;;0.30;0.20;;;7.80;99.90;;;;;;5089377;28;20183;-79
2024/01/08 05:14:21;;;;;;;0.30;0.30;;;8.00;99.90;;;;;;5091109;28;20207;-81
2024/01/08 05:16:47;;;;;;;0.30;0.20;;;8.00;99.90;;;;;;5089159;28;20172;-79
2024/01/08 05:19:12;;;;;;;0.30;0.20;;;8.00;99.90;;;;;;5090654;28;20211;-79
2024/01/08 05:21:38;;;;;;;0.30;0.20;;;8.30;99.90;;;;;;5090455;28;20407;-74
2024/01/08 05:24:07;;;;;;;0.30;0.20;;;8.50;99.90;;;;;;5089487;28;20224;-75
2024/01/08 05:26:33;;;;;;;0.30;0.20;;;8.60;99.90;;;;;;5085342;28;20183;-81
2024/01/08 05:28:58;;;;;;;0.40;0.40;;;8.50;99.90;;;;;;5085967;28;20205;-75
2024/01/08 05:31:24;;;;;;;0.30;0.20;;;8.50;99.90;;;;;;5085636;28;20212;-81
2024/01/08 05:33:50;;;;;;;0.30;0.20;;;8.50;99.90;;;;;;5087519;28;20241;-81
2024/01/08 05:36:16;;;;;;;0.30;0.20;;;8.50;99.90;;;;;;5087127;28;20184;-75
2024/01/08 05:38:42;;;;;;;0.30;0.20;;;8.40;99.90;;;;;;5088583;28;20214;-81
2024/01/08 05:41:08;;;;;;;0.30;0.20;;;8.30;99.90;;;;;;5086284;28;20203;-76
2024/01/08 05:43:37;;;;;;;0.30;0.20;;;8.30;99.90;;;;;;5086217;28;20227;-75
2024/01/08 05:46:07;;;;;;;0.30;0.20;;;8.20;99.90;;;;;;5085190;28;20176;-81
2024/01/08 05:48:41;;;;;;;3.05;2.95;;;8.10;99.90;;;;;;5087938;28;20511;-73
2024/01/08 05:51:08;;;;;;;0.30;0.20;;;8.00;99.90;;;;;;5077407;28;20229;-79
2024/01/08 05:53:34;;;;;;;0.30;0.20;;;7.90;99.90;;;;;;5085772;28;20208;-73
2024/01/08 05:56:00;;;;;;;0.30;0.20;;;8.10;99.90;;;;;;5068867;28;20192;-79
2024/01/08 05:58:25;;;;;;;0.30;0.20;;;8.10;99.90;;;;;;5088863;28;20982;-73
2024/01/08 06:00:57;;;;;;;0.30;0.20;;;7.90;99.90;;;;;;5085005;28;20515;-73
2024/01/08 06:03:22;;;;;;;0.30;0.20;;;7.80;99.90;;;;;;5082340;28;20260;-73
2024/01/08 06:05:49;;;;;;;0.30;0.20;;;7.90;99.90;;;;;;5083743;28;20224;-74
2024/01/08 06:08:14;;;;;;;0.30;0.20;;;7.90;99.90;;;;;;5078718;28;20461;-79
2024/01/08 06:10:40;;;;;;;0.30;0.20;;;7.70;99.90;;;;;;5071536;28;20180;-76
2024/01/08 06:13:08;;;;;;;0.30;0.20;;;7.60;99.90;;;;;;5095502;28;20605;-74
2024/01/08 06:15:34;;;;;;;0.30;0.20;;;7.60;99.90;;;;;;5082555;28;20459;-74
2024/01/08 06:17:59;;;;;;;0.30;0.20;;;7.10;99.90;;;;;;5085980;28;20681;-76
2024/01/08 06:20:26;;;;;;;0.30;0.20;;;6.80;99.90;;;;;;5085468;28;20188;-82
2024/01/08 06:22:51;;;;;;;0.30;0.20;;;6.60;99.90;;;;;;5079002;28;20224;-81
2024/01/08 06:25:18;;;;;;;0.30;0.20;;;6.20;99.90;;;;;;5082014;28;20169;-77
2024/01/08 06:27:43;;;;;;;0.30;0.30;;;5.80;99.90;;;;;;5077708;28;20191;-79
2024/01/08 06:30:10;;;;;;;0.30;0.20;;;5.50;99.90;;;;;;5079745;28;20177;-75
2024/01/08 06:32:35;;;;;;;0.30;0.20;;;5.10;99.90;;;;;;5076673;28;20264;-73
2024/01/08 06:35:02;;;;;;;0.30;0.20;;;4.90;99.90;;;;;;5077387;28;20604;-73
2024/01/08 06:37:28;;;;;;;0.30;0.20;;;4.60;99.90;;;;;;5076646;28;20575;-79
2024/01/08 06:39:54;;;;;;;0.30;0.30;;;4.40;99.90;;;;;;5076039;28;20176;-74
2024/01/08 06:42:19;;;;;;;0.30;0.20;;;4.20;99.90;;;;;;5079060;28;20461;-79
2024/01/08 06:44:45;;;;;;;0.30;0.20;;;4.10;99.90;;;;;;5081063;28;20774;-76
2024/01/08 06:47:11;;;;;;;0.30;0.20;;;3.90;99.90;;;;;;5083049;28;20176;-74
2024/01/08 06:49:36;;;;;;;0.30;0.30;;;3.80;99.90;;;;;;5082692;28;20416;-79
2024/01/08 06:52:02;;;;;;;0.30;0.20;;;3.70;99.90;;;;;;5079258;28;20272;-75
2024/01/08 06:54:28;;;;;;;0.30;0.20;;;3.70;99.90;;;;;;5081866;28;20718;-73
2024/01/08 06:56:54;;;;;;;0.30;0.30;;;3.70;99.90;;;;;;5078612;28;20631;-80
2024/01/08 06:59:19;;;;;;;0.30;0.30;;;3.70;99.90;;;;;;5078224;28;20240;-74
2024/01/08 07:01:45;;;;;;;0.30;0.20;;;3.70;99.90;;;;;;5076115;28;20183;-73
2024/01/08 07:04:11;;;;;;;0.30;0.20;;;3.70;99.90;;;;;;5052013;28;20203;-73
2024/01/08 07:06:37;;;;;;;0.30;0.20;;;3.60;99.90;;;;;;5073754;28;20772;-73
2024/01/08 07:09:02;;;;;;;0.30;0.30;;;3.60;99.90;;;;;;5078084;28;20300;-73
2024/01/08 07:11:28;;;;;;;0.30;0.20;;;3.60;99.90;;;;;;5073211;28;20399;-73
2024/01/08 07:13:54;;;;;;;0.30;0.20;;;3.60;99.90;;;;;;5077735;28;20209;-79
2024/01/08 07:16:19;;;;;;;0.30;0.23;;;3.60;99.90;;;;;;5078831;28;20179;-73
2024/01/08 07:18:48;;;;;;;0.30;0.20;;;3.60;99.90;;;;;;5079867;28;20422;-74
2024/01/08 07:21:16;;;;;;;0.30;0.20;;;3.60;99.90;;;;;;5081004;28;21103;-74
2024/01/08 07:23:44;;;;;;;0.30;0.20;;;3.60;99.90;;;;;;5082972;28;20298;-79
2024/01/08 07:26:10;;;;;;;0.30;0.20;;;3.60;99.90;;;;;;5079539;28;20177;-79
2024/01/08 07:28:36;;;;;;;0.30;0.20;;;3.50;99.90;;;;;;5082414;28;20219;-73
2024/01/08 07:31:03;;;;;;;0.30;0.20;;;3.60;99.90;;;;;;5082853;28;20382;-79
2024/01/08 07:33:29;;;;;;;0.30;0.20;;;3.50;99.90;;;;;;5078912;28;20200;-74
2024/01/08 07:35:55;;;;;;;0.30;0.20;;;3.60;99.90;;;;;;5072307;28;20333;-75
2024/01/08 07:38:21;;;;;;;0.30;0.20;;;3.50;99.90;;;;;;5082205;28;20192;-74
2024/01/08 07:40:47;;;;;;;0.30;0.20;;;3.50;99.90;;;;;;5076647;28;20211;-80
2024/01/08 07:43:13;;;;;;;0.30;0.20;;;3.50;99.90;;;;;;5078958;28;20600;-74
2024/01/08 07:45:40;;;;;;;0.30;0.20;;;3.50;99.90;;;;;;5083393;28;20188;-80
2024/01/08 07:48:06;;;;;;;0.30;0.30;;;3.50;99.90;;;;;;5083184;28;20205;-74
2024/01/08 07:50:31;;;;;;;0.30;0.20;;;3.40;99.90;;;;;;5085928;28;20810;-74
2024/01/08 07:52:57;;;;;;;0.30;0.30;;;3.40;99.90;;;;;;5080608;28;22079;-74
2024/01/08 07:55:23;;;;;;;0.30;0.30;;;3.40;99.90;;;;;;5088239;28;20172;-80
2024/01/08 07:57:50;;;;;;;0.30;0.30;;;3.40;99.90;;;;;;5084276;28;20200;-74
2024/01/08 08:00:16;;;;;;;0.30;0.30;;;3.40;99.90;;;;;;5088292;28;20185;-74
2024/01/08 08:02:42;;;;;;;0.30;0.30;;;3.40;99.90;;;;;;5084797;28;20281;-75
2024/01/08 08:05:07;;;;;;;0.30;0.30;;;3.40;99.90;;;;;;5114069;27;20724;-72
2024/01/08 08:07:35;;;;;;;0.30;0.30;;;3.40;99.90;;;;;;5087166;28;20190;-79
2024/01/08 08:10:00;;;;;;;0.30;0.30;;;3.40;99.90;;;;;;5082666;28;20237;-75
2024/01/08 08:12:27;;;;;;;0.30;0.30;;;3.50;99.90;;;;;;5077105;28;20180;-79
2024/01/08 08:14:53;;;;;;;0.30;0.30;;;3.50;99.90;;;;;;5105227;27;20173;-73
2024/01/08 08:17:19;;;;;;;0.30;0.30;;;3.50;99.90;;;;;;5079338;28;20267;-72
2024/01/08 08:19:45;;;;;;;0.30;0.20;;;3.50;99.90;;;;;;5081288;28;20311;-74
2024/01/08 08:22:11;;;;;;;0.30;0.30;;;3.50;99.90;;;;;;5083932;28;20253;-79
2024/01/08 08:24:40;;;;;;;0.30;0.30;;;3.60;99.90;;;;;;5084333;28;20456;-73
2024/01/08 08:27:09;;;;;;;0.30;0.30;;;3.60;99.90;;;;;;5065284;28;21294;-78
2024/01/08 08:29:41;;;;;;;0.30;0.30;;;3.60;99.90;;;;;;5073293;28;20294;-72
2024/01/08 08:32:08;;;;;;;0.30;0.20;;;3.60;99.90;;;;;;5087998;28;20222;-72
2024/01/08 08:34:34;;;;;;;0.30;0.30;;;3.60;99.90;;;;;;5112966;27;20200;-72
2024/01/08 08:37:00;;;;;;;0.30;0.20;;;3.60;99.90;;;;;;5094850;28;20182;-73
2024/01/08 08:39:25;;;;;;;0.30;0.30;;;3.60;99.90;;;;;;5067703;28;20898;-72
2024/01/08 08:41:51;;;;;;;0.30;0.20;;;3.60;99.90;;;;;;5086397;28;20188;-79
2024/01/08 08:44:17;;;;;;;0.30;0.30;;;3.60;99.90;;;;;;5078414;28;20219;-75
2024/01/08 08:46:44;;;;;;;0.30;0.30;;;3.60;99.90;;;;;;5085299;28;20188;-72
2024/01/08 08:49:12;;;;;;;0.30;0.20;;;3.60;99.90;;;;;;5083734;28;20423;-72
2024/01/08 08:51:37;;;;;;;0.30;0.20;;;3.60;99.90;;;;;;5073666;28;20245;-73
2024/01/08 08:54:04;;;;;;;0.30;0.30;;;3.60;99.90;;;;;;5087396;28;20201;-73
2024/01/08 08:56:36;;;;;;;0.30;0.20;;;3.70;99.90;;;;;;5088092;28;20905;-79
2024/01/08 08:59:02;;;;;;;0.30;0.30;;;3.70;99.90;;;;;;5063495;28;20848;-79
2024/01/08 09:01:28;;;;;;;0.30;0.20;;;3.70;99.90;;;;;;5076341;28;20642;-79
2024/01/08 09:03:54;;;;;;;0.30;0.30;;;3.70;99.90;;;;;;5084701;28;20352;-75
2024/01/08 09:06:23;;;;;;;0.30;0.20;;;3.70;99.90;;;;;;5109805;27;20253;-79
2024/01/08 09:08:50;;;;;;;0.30;0.28;;;3.80;99.90;;;;;;5093923;27;20207;-79
2024/01/08 09:11:16;;;;;;;0.30;0.20;;;3.80;99.90;;;;;;5102303;27;20177;-74
2024/01/08 09:13:42;;;;;;;0.30;0.30;;;3.80;99.90;;;;;;5080785;28;20215;-79
2024/01/08 09:16:12;;;;;;;0.30;0.20;;;3.80;99.90;;;;;;5088891;28;20331;-79
2024/01/08 09:18:39;;;;;;;0.30;0.30;;;3.90;99.90;;;;;;5084796;28;20443;-74
2024/01/08 09:21:08;;;;;;;0.30;0.20;;;3.90;99.90;;;;;;5085491;28;20181;-79
2024/01/08 09:23:34;;;;;;;0.30;0.20;;;3.90;99.90;;;;;;5064641;28;20225;-73
2024/01/08 09:25:59;;;;;;;0.30;0.30;;;3.90;99.90;;;;;;5102557;27;20218;-74
2024/01/08 09:28:26;;;;;;;0.30;0.30;;;3.80;99.90;;;;;;5089331;27;20200;-79
2024/01/08 09:30:52;;;;;;;0.30;0.30;;;3.80;99.90;;;;;;5074179;28;20187;-79
2024/01/08 09:33:18;;;;;;;0.30;0.20;;;3.80;99.90;;;;;;5100028;27;20277;-79
2024/01/08 09:35:44;;;;;;;0.30;0.20;;;3.80;99.90;;;;;;5087764;28;20448;-79
2024/01/08 09:38:10;;;;;;;0.30;0.30;;;3.80;99.90;;;;;;5085164;28;20483;-73
2024/01/08 09:40:36;;;;;;;0.30;0.30;;;3.80;99.90;;;;;;5087866;28;20274;-73
2024/01/08 09:43:09;;;;;;;0.30;0.30;;;3.80;99.90;;;;;;5092044;28;20245;-79
2024/01/08 09:45:45;;;;;;;0.30;0.20;;;3.80;99.90;;;;;;5091574;28;20547;-79
2024/01/08 09:48:11;;;;;;;0.30;0.20;;;3.80;99.90;;;;;;5082352;28;20294;-73
2024/01/08 09:50:38;;;;;;;0.30;0.30;;;3.80;99.90;;;;;;5097000;28;20190;-79
2024/01/08 09:53:04;;;;;;;0.30;0.30;;;3.80;99.90;;;;;;5070719;28;20192;-78
2024/01/08 09:55:30;;;;;;;27.67;26.53;;;3.80;99.90;;;;;;5084781;28;20264;-81
2024/01/08 09:57:56;;;;;;;0.30;0.20;;;3.80;99.90;;;;;;5075114;28;20273;-73
2024/01/08 10:00:22;;;;;;;0.30;0.20;;;3.80;99.90;;;;;;5089203;28;20172;-73
2024/01/08 10:02:58;;;;;;;0.30;0.20;;;3.80;99.90;;;;;;5082798;28;20454;-73
2024/01/08 10:05:27;;;;;;;0.30;0.20;;;3.80;99.90;;;;;;5085450;28;20616;-73
2024/01/08 10:07:53;;;;;;;0.30;0.20;;;3.80;99.90;;;;;;5095861;27;20299;-73
2024/01/08 10:10:22;;;;;;;0.30;0.30;;;3.80;99.90;;;;;;5080521;28;20255;-79
2024/01/08 10:12:51;;;;;;;0.30;0.20;;;3.70;99.90;;;;;;5084001;28;20199;-73
2024/01/08 10:15:18;;;;;;;0.30;0.30;;;3.70;99.90;;;;;;5058446;28;21242;-73
2024/01/08 10:17:48;;;;;;;0.30;0.30;;;3.70;99.90;;;;;;5074481;28;20199;-73
2024/01/08 10:20:15;;;;;;;0.30;0.20;;;3.70;99.90;;;;;;5074417;28;20208;-73
2024/01/08 10:22:43;;;;;;;0.30;0.30;;;3.70;99.90;;;;;;5056095;27;20228;-76
2024/01/08 10:25:09;;;;;;;0.30;0.30;;;3.70;99.90;;;;;;5042528;28;20323;-79
2024/01/08 10:27:35;;;;;;;0.30;0.30;;;3.70;99.90;;;;;;5042158;28;21497;-73
2024/01/08 10:30:02;;;;;;;0.30;0.20;;;3.70;99.90;;;;;;5061063;28;20187;-78
2024/01/08 10:32:29;;;;;;;0.30;0.20;;;3.70;99.90;;;;;;5097779;27;20384;-73
2024/01/08 10:34:56;;;;;;;0.30;0.20;;;3.70;99.90;;;;;;5077701;28;20352;-79
2024/01/08 10:37:22;;;;;;;0.30;0.20;;;3.80;99.90;;;;;;5101207;28;20270;-73
2024/01/08 10:39:48;;;;;;;0.30;0.20;;;3.80;99.90;;;;;;5100657;28;20187;-78
2024/01/08 10:42:14;;;;;;;0.30;0.30;;;3.80;99.90;;;;;;5103284;28;20199;-73
2024/01/08 10:44:40;;;;;;;0.30;0.20;;;3.80;99.90;;;;;;5087810;28;20241;-73
2024/01/08 10:47:10;;;;;;;0.30;0.30;;;3.80;99.90;;;;;;5099575;28;20637;-74
2024/01/08 10:49:38;;;;;;;0.30;0.30;;;3.80;99.90;;;;;;5081549;28;20498;-79
2024/01/08 10:52:27;;;;;;;0.30;0.30;;;3.80;99.90;;;;;;5075096;28;20271;-79
2024/01/08 10:54:58;;;;;;;0.30;0.30;;;3.80;99.90;;;;;;5091955;28;20184;-73
2024/01/08 10:57:34;;;;;;;0.40;0.30;;;3.80;99.90;;;;;;5080890;28;20233;-73
2024/01/08 11:00:01;;;;;;;0.30;0.28;;;3.90;99.90;;;;;;5101103;28;20180;-79
2024/01/08 11:02:27;;;;;;;0.30;0.30;;;3.90;99.90;;;;;;5083598;28;20307;-73
2024/01/08 11:05:00;;;;;;;0.30;0.28;;;3.90;99.90;;;;;;5086093;28;20217;-73
2024/01/08 11:07:28;;;;;;;0.30;0.30;;;3.90;99.90;;;;;;5080467;28;20569;-73
2024/01/08 11:10:03;;;;;;;0.30;0.30;;;3.90;99.90;;;;;;5083694;28;20519;-73
2024/01/08 11:12:30;;;;;;;0.30;0.30;;;4.00;99.90;;;;;;5079784;28;20183;-74
2024/01/08 11:15:03;;;;;;;0.30;0.30;;;4.00;99.90;;;;;;5095068;28;20180;-74
2024/01/08 11:17:29;;;;;;;0.30;0.20;;;4.00;99.90;;;;;;5075999;28;20260;-73
2024/01/08 11:19:57;;;;;;;0.30;0.20;;;4.00;99.90;;;;;;5100060;28;20176;-75
2024/01/08 11:22:23;;;;;;;0.30;0.30;;;4.00;99.90;;;;;;5097589;28;20348;-79
2024/01/08 11:24:49;;;;;;;0.30;0.30;;;4.10;99.90;;;;;;5086060;28;20172;-79
2024/01/08 11:27:21;;;;;;;0.30;0.20;;;4.10;99.90;;;;;;5064589;28;20255;-72
2024/01/08 11:29:57;;;;;;;0.30;0.30;;;4.10;99.90;;;;;;5087155;28;20407;-72
2024/01/08 11:32:50;;;;;;;0.30;0.20;;;4.20;99.90;;;;;;5084169;28;20334;-79
2024/01/08 11:35:20;;;;;;;0.30;0.28;;;4.20;99.90;;;;;;5066088;28;20644;-72
2024/01/08 11:38:05;;;;;;;0.30;0.20;;;4.20;99.90;;;;;;5079098;28;20292;-73
2024/01/08 11:40:31;;;;;;;0.30;0.30;;;4.10;99.90;;;;;;5077648;28;20558;-72
2024/01/08 11:42:58;;;;;;;0.30;0.20;;;4.10;99.90;;;;;;5087686;28;20227;-79
2024/01/08 11:45:25;;;;;;;0.30;0.30;;;4.10;99.90;;;;;;5077148;28;20657;-73
2024/01/08 11:47:51;;;;;;;0.30;0.20;;;4.10;99.90;;;;;;5078295;28;20613;-78
2024/01/08 11:50:17;;;;;;;0.30;0.20;;;4.20;99.90;;;;;;5075296;28;20272;-73
2024/01/08 11:52:43;;;;;;;0.30;0.30;;;4.20;99.90;;;;;;5032928;28;20189;-72
2024/01/08 11:55:09;;;;;;;0.30;0.30;;;4.20;99.90;;;;;;5032440;28;20172;-78
2024/01/08 11:57:36;;;;;;;0.30;0.30;;;4.30;99.90;;;;;;5028511;28;20795;-72
2024/01/08 12:00:15;;;;;;;0.30;0.20;;;4.30;99.90;;;;;;5029396;28;20188;-78
2024/01/08 12:02:41;;;;;;;0.30;0.20;;;4.30;99.90;;;;;;5027960;28;20701;-81
2024/01/08 12:05:08;;;;;;;0.30;0.30;;;4.30;99.90;;;;;;5028518;28;20305;-73
2024/01/08 12:07:37;;;;;;;0.30;0.30;;;4.30;99.90;;;;;;5030524;28;20523;-73
2024/01/08 12:10:06;;;;;;;0.30;0.30;;;4.30;99.90;;;;;;5027097;28;20176;-79
2024/01/08 12:12:31;;;;;;;0.30;0.30;;;4.30;99.90;;;;;;5031771;28;20184;-73
2024/01/08 12:14:57;;;;;;;0.30;0.20;;;4.30;99.90;;;;;;5033121;28;20253;-80
2024/01/08 12:17:24;;;;;;;0.30;0.20;;;4.30;99.90;;;;;;5028108;28;20181;-80
2024/01/08 12:19:52;;;;;;;0.30;0.30;;;4.20;99.90;;;;;;5032150;28;20489;-73
2024/01/08 12:22:19;;;;;;;0.30;0.30;;;4.20;99.90;;;;;;5053014;27;20200;-79
2024/01/08 12:24:49;;;;;;;0.30;0.20;;;4.20;99.90;;;;;;5081824;28;20294;-75
2024/01/08 12:27:17;;;;;;;0.30;0.30;;;4.20;99.90;;;;;;5076097;28;20184;-81
2024/01/08 12:29:43;;;;;;;0.30;0.20;;;4.20;99.90;;;;;;5030594;28;20200;-73
2024/01/08 12:32:12;;;;;;;0.30;0.20;;;4.20;99.90;;;;;;5038128;28;20931;-73
2024/01/08 12:34:39;;;;;;;0.30;0.30;;;4.20;99.90;;;;;;5032522;28;20216;-78
2024/01/08 12:37:06;;;;;;;0.30;0.20;;;4.20;99.90;;;;;;5072310;28;20677;-73
2024/01/08 12:39:35;;;;;;;0.30;0.30;;;4.20;99.90;;;;;;5090676;27;20208;-73
2024/01/08 12:42:15;;;;;;;0.30;0.20;;;4.20;99.90;;;;;;5081730;28;20192;-79
2024/01/08 12:44:42;;;;;;;0.30;0.30;;;4.30;99.90;;;;;;5105242;27;20204;-72
2024/01/08 12:47:08;;;;;;;0.30;0.20;;;4.20;99.90;;;;;;5089700;28;20172;-81
2024/01/08 12:49:34;;;;;;;0.30;0.30;;;4.20;99.90;;;;;;5084206;28;20204;-81
2024/01/08 12:52:01;;;;;;;0.30;0.20;;;4.20;99.90;;;;;;5077525;28;20465;-78
2024/01/08 12:54:28;;;;;;;0.30;0.30;;;4.20;99.90;;;;;;5076751;28;21366;-73